createdAt,value
2017-11-09T00:00:06.314Z,88.99
2017-11-09T00:01:06.273Z,89.27
2017-11-09T00:02:06.144Z,88.42
2017-11-09T00:03:06.056Z,88.79
2017-11-09T00:04:05.967Z,88.32
2017-11-09T00:05:05.890Z,87.94
2017-11-09T00:06:05.800Z,87.94
2017-11-09T00:07:05.751Z,87.75
2017-11-09T00:08:05.625Z,88.79
2017-11-09T00:09:05.536Z,87.85
2017-11-09T00:10:05.449Z,88.04
2017-11-09T00:11:05.366Z,88.04
2017-11-09T00:12:05.279Z,88.32
2017-11-09T00:13:05.197Z,88.23
2017-11-09T00:14:05.105Z,88.04
2017-11-09T00:15:05.017Z,87.94
2017-11-09T00:16:04.936Z,87.56
2017-11-09T00:17:04.843Z,87.85
2017-11-09T00:18:04.765Z,88.09
2017-11-09T00:19:04.674Z,88.66
2017-11-09T00:20:04.591Z,88.94
2017-11-09T00:21:04.504Z,88.32
2017-11-09T00:22:04.414Z,88.46
2017-11-09T00:23:04.330Z,88.18
2017-11-09T00:24:04.242Z,88.04
2017-11-09T00:25:04.155Z,88.04
2017-11-09T00:26:04.073Z,87.56
2017-11-09T00:27:03.987Z,87.56
2017-11-09T00:28:03.905Z,87.61
2017-11-09T00:29:03.824Z,87.99
2017-11-09T00:30:03.729Z,88.13
2017-11-09T00:31:03.645Z,87.61
2017-11-09T00:32:03.554Z,88.46
2017-11-09T00:33:03.464Z,88.04
2017-11-09T00:34:03.377Z,87.75
2017-11-09T00:35:03.294Z,87.75
2017-11-09T00:36:03.207Z,88.23
2017-11-09T00:37:03.119Z,88.04
2017-11-09T00:38:03.035Z,87.99
2017-11-09T00:39:02.947Z,88.23
2017-11-09T00:40:02.868Z,87.99
2017-11-09T00:41:02.773Z,87.85
2017-11-09T00:42:02.695Z,87.99
2017-11-09T00:43:02.606Z,88.04
2017-11-09T00:44:02.515Z,87.85
2017-11-09T00:45:02.428Z,87.56
2017-11-09T00:46:02.340Z,87.56
2017-11-09T00:47:02.260Z,87.37
2017-11-09T00:48:02.171Z,88.04
2017-11-09T00:49:02.116Z,87.65
2017-11-09T00:50:02.002Z,87.94
2017-11-09T00:51:01.913Z,87.46
2017-11-09T00:52:01.825Z,87.56
2017-11-09T00:53:01.747Z,87.18
2017-11-09T00:54:01.656Z,87.37
2017-11-09T00:55:01.568Z,87.46
2017-11-09T00:56:01.518Z,87.46
2017-11-09T00:57:01.397Z,87.85
2017-11-09T00:58:01.322Z,87.56
2017-11-09T00:59:01.232Z,87.08
2017-11-09T01:00:01.145Z,87.08
2017-11-09T01:01:01.048Z,87.46
2017-11-09T01:02:00.974Z,87.85
2017-11-09T01:03:00.883Z,87.52
2017-11-09T01:04:00.796Z,87.46
2017-11-09T01:05:00.712Z,87.65
2017-11-09T01:06:00.622Z,86.99
2017-11-09T01:07:00.541Z,87.37
2017-11-09T01:08:00.449Z,87.65
2017-11-09T01:09:00.369Z,86.99
2017-11-09T01:10:00.277Z,86.90
2017-11-09T01:11:00.204Z,86.94
2017-11-09T01:12:00.109Z,87.23
2017-11-09T01:13:00.021Z,86.94
2017-11-09T01:13:59.937Z,87.32
2017-11-09T01:14:59.848Z,87.04
2017-11-09T01:15:59.764Z,87.71
2017-11-09T01:16:59.675Z,86.94
2017-11-09T01:17:59.596Z,86.80
2017-11-09T01:18:59.512Z,87.32
2017-11-09T01:19:59.416Z,87.71
2017-11-09T01:20:59.338Z,87.61
2017-11-09T01:21:59.246Z,87.13
2017-11-09T01:22:59.155Z,87.04
2017-11-09T01:23:59.090Z,87.61
2017-11-09T01:24:58.980Z,87.08
2017-11-09T01:25:58.904Z,87.37
2017-11-09T01:26:58.812Z,86.47
2017-11-09T01:27:58.719Z,86.94
2017-11-09T01:28:58.639Z,87.08
2017-11-09T01:29:58.552Z,86.51
2017-11-09T01:30:58.480Z,86.22
2017-11-09T01:31:58.402Z,86.51
2017-11-09T01:32:58.296Z,86.51
2017-11-09T01:33:58.205Z,86.22
2017-11-09T01:34:58.117Z,85.90
2017-11-09T01:35:58.036Z,86.38
2017-11-09T01:36:57.953Z,86.51
2017-11-09T01:37:57.857Z,86.57
2017-11-09T01:38:57.823Z,86.61
2017-11-09T01:39:57.692Z,86.22
2017-11-09T01:40:57.601Z,86.04
2017-11-09T01:41:57.514Z,86.04
2017-11-09T01:42:57.427Z,85.56
2017-11-09T01:43:57.336Z,86.28
2017-11-09T01:44:57.258Z,86.28
2017-11-09T01:45:57.168Z,86.47
2017-11-09T01:46:57.086Z,85.90
2017-11-09T01:47:56.994Z,86.18
2017-11-09T01:48:56.906Z,86.18
2017-11-09T01:49:56.817Z,86.47
2017-11-09T01:50:56.746Z,86.76
2017-11-09T01:51:56.650Z,87.32
2017-11-09T01:52:56.568Z,87.32
2017-11-09T01:53:56.496Z,86.66
2017-11-09T01:54:56.403Z,86.22
2017-11-09T01:55:56.304Z,86.70
2017-11-09T01:56:56.226Z,86.22
2017-11-09T01:57:56.134Z,85.85
2017-11-09T01:58:56.041Z,85.56
2017-11-09T01:59:55.959Z,86.04
2017-11-09T02:00:55.875Z,85.28
2017-11-09T02:01:55.928Z,85.56
2017-11-09T02:02:55.706Z,85.85
2017-11-09T02:03:55.619Z,86.22
2017-11-09T02:04:55.526Z,85.47
2017-11-09T02:05:55.449Z,86.42
2017-11-09T02:06:55.359Z,85.66
2017-11-09T02:07:55.269Z,85.56
2017-11-09T02:08:55.188Z,85.66
2017-11-09T02:09:55.098Z,86.32
2017-11-09T02:10:55.020Z,86.32
2017-11-09T02:11:54.935Z,85.56
2017-11-09T02:12:54.842Z,85.56
2017-11-09T02:13:54.758Z,85.28
2017-11-09T02:14:54.672Z,85.66
2017-11-09T02:15:54.592Z,85.37
2017-11-09T02:16:54.503Z,85.75
2017-11-09T02:17:54.411Z,85.56
2017-11-09T02:18:54.325Z,85.56
2017-11-09T02:19:54.240Z,85.85
2017-11-09T02:20:54.155Z,86.04
2017-11-09T02:21:54.064Z,85.66
2017-11-09T02:22:53.992Z,86.38
2017-11-09T02:23:53.892Z,87.23
2017-11-09T02:24:53.807Z,86.76
2017-11-09T02:25:53.732Z,86.18
2017-11-09T02:26:53.636Z,86.18
2017-11-09T02:27:53.556Z,86.32
2017-11-09T02:28:53.463Z,86.28
2017-11-09T02:29:53.371Z,86.13
2017-11-09T02:30:53.289Z,86.18
2017-11-09T02:31:53.203Z,86.22
2017-11-09T02:32:53.126Z,85.56
2017-11-09T02:33:53.028Z,85.47
2017-11-09T02:34:52.941Z,86.47
2017-11-09T02:35:52.866Z,85.94
2017-11-09T02:36:52.786Z,86.47
2017-11-09T02:37:52.686Z,87.32
2017-11-09T02:38:52.606Z,86.57
2017-11-09T02:39:52.511Z,86.47
2017-11-09T02:40:52.441Z,86.28
2017-11-09T02:41:52.344Z,86.22
2017-11-09T02:42:52.254Z,85.90
2017-11-09T02:43:52.294Z,86.47
2017-11-09T02:44:52.086Z,86.76
2017-11-09T02:45:52.010Z,86.66
2017-11-09T02:46:51.914Z,87.23
2017-11-09T02:47:51.828Z,87.04
2017-11-09T02:48:51.736Z,87.04
2017-11-09T02:49:51.653Z,87.04
2017-11-09T02:50:52.336Z,86.28
2017-11-09T02:51:51.475Z,86.94
2017-11-09T02:52:51.392Z,87.13
2017-11-09T02:53:51.311Z,87.04
2017-11-09T02:54:51.216Z,86.57
2017-11-09T02:55:51.126Z,86.47
2017-11-09T02:56:51.043Z,86.76
2017-11-09T02:57:50.961Z,87.23
2017-11-09T02:58:50.878Z,86.76
2017-11-09T02:59:50.787Z,87.42
2017-11-09T03:00:50.692Z,86.57
2017-11-09T03:01:50.613Z,86.66
2017-11-09T03:02:50.525Z,86.38
2017-11-09T03:03:50.434Z,86.76
2017-11-09T03:04:50.348Z,87.13
2017-11-09T03:05:50.262Z,86.94
2017-11-09T03:06:50.179Z,86.66
2017-11-09T03:07:50.088Z,86.47
2017-11-09T03:08:49.999Z,86.66
2017-11-09T03:09:49.919Z,87.52
2017-11-09T03:10:49.837Z,87.04
2017-11-09T03:11:49.750Z,87.23
2017-11-09T03:12:49.653Z,86.47
2017-11-09T03:13:49.571Z,86.66
2017-11-09T03:14:49.482Z,86.38
2017-11-09T03:15:49.398Z,86.61
2017-11-09T03:16:49.316Z,86.13
2017-11-09T03:17:49.222Z,86.04
2017-11-09T03:18:49.136Z,85.94
2017-11-09T03:19:49.050Z,86.28
2017-11-09T03:20:48.964Z,86.47
2017-11-09T03:21:48.888Z,86.94
2017-11-09T03:22:48.784Z,86.85
2017-11-09T03:23:48.700Z,87.23
2017-11-09T03:24:48.624Z,86.76
2017-11-09T03:25:48.536Z,86.09
2017-11-09T03:26:48.443Z,86.57
2017-11-09T03:27:48.359Z,87.42
2017-11-09T03:28:48.267Z,86.57
2017-11-09T03:29:48.188Z,86.66
2017-11-09T03:30:48.110Z,86.66
2017-11-09T03:31:48.007Z,86.61
2017-11-09T03:32:47.923Z,86.70
2017-11-09T03:33:47.838Z,86.22
2017-11-09T03:34:47.747Z,87.04
2017-11-09T03:35:47.662Z,86.76
2017-11-09T03:36:47.583Z,86.76
2017-11-09T03:37:47.499Z,86.85
2017-11-09T03:38:47.402Z,87.13
2017-11-09T03:39:47.358Z,87.23
2017-11-09T03:40:47.231Z,87.52
2017-11-09T03:41:47.142Z,86.94
2017-11-09T03:42:47.057Z,87.04
2017-11-09T03:43:46.982Z,86.76
2017-11-09T03:44:46.894Z,87.23
2017-11-09T03:45:46.799Z,86.94
2017-11-09T03:46:46.717Z,86.47
2017-11-09T03:47:46.634Z,86.47
2017-11-09T03:48:46.535Z,86.38
2017-11-09T03:49:46.456Z,86.66
2017-11-09T03:50:46.368Z,86.76
2017-11-09T03:51:46.276Z,87.13
2017-11-09T03:52:46.198Z,87.32
2017-11-09T03:53:46.104Z,87.23
2017-11-09T03:54:46.022Z,87.04
2017-11-09T03:55:45.930Z,86.28
2017-11-09T03:56:45.854Z,86.28
2017-11-09T03:57:45.759Z,86.22
2017-11-09T03:58:45.677Z,86.42
2017-11-09T03:59:45.594Z,86.22
2017-11-09T04:00:45.507Z,85.99
2017-11-09T04:01:45.417Z,86.28
2017-11-09T04:02:45.330Z,86.32
2017-11-09T04:03:45.245Z,86.13
2017-11-09T04:04:45.157Z,85.47
2017-11-09T04:05:45.068Z,85.56
2017-11-09T04:06:44.985Z,86.38
2017-11-09T04:07:44.945Z,86.04
2017-11-09T04:08:44.814Z,85.94
2017-11-09T04:09:44.722Z,86.04
2017-11-09T04:10:44.638Z,85.56
2017-11-09T04:11:44.550Z,85.66
2017-11-09T04:12:44.467Z,85.56
2017-11-09T04:13:44.382Z,85.37
2017-11-09T04:14:44.299Z,85.56
2017-11-09T04:15:44.213Z,85.94
2017-11-09T04:16:44.123Z,85.75
2017-11-09T04:17:44.035Z,85.75
2017-11-09T04:18:43.952Z,85.94
2017-11-09T04:19:43.882Z,85.75
2017-11-09T04:20:43.779Z,85.28
2017-11-09T04:21:43.690Z,85.18
2017-11-09T04:22:43.610Z,85.56
2017-11-09T04:23:43.527Z,85.37
2017-11-09T04:24:43.437Z,85.18
2017-11-09T04:25:43.349Z,85.56
2017-11-09T04:26:43.265Z,85.24
2017-11-09T04:27:43.180Z,86.09
2017-11-09T04:28:43.092Z,86.09
2017-11-09T04:29:43.014Z,85.90
2017-11-09T04:30:42.917Z,85.75
2017-11-09T04:31:42.834Z,85.66
2017-11-09T04:32:42.744Z,85.37
2017-11-09T04:33:42.670Z,85.66
2017-11-09T04:34:42.582Z,85.66
2017-11-09T04:35:42.493Z,85.37
2017-11-09T04:36:42.403Z,85.61
2017-11-09T04:37:42.319Z,85.52
2017-11-09T04:38:42.235Z,85.66
2017-11-09T04:39:42.146Z,85.90
2017-11-09T04:40:42.059Z,86.85
2017-11-09T04:41:41.974Z,86.38
2017-11-09T04:42:41.885Z,86.47
2017-11-09T04:43:41.806Z,86.18
2017-11-09T04:44:41.715Z,85.99
2017-11-09T04:45:41.626Z,86.57
2017-11-09T04:46:41.544Z,85.90
2017-11-09T04:47:41.453Z,86.18
2017-11-09T04:48:41.370Z,86.13
2017-11-09T04:49:41.284Z,85.56
2017-11-09T04:50:41.200Z,85.61
2017-11-09T04:51:41.117Z,85.71
2017-11-09T04:52:41.025Z,85.75
2017-11-09T04:53:40.937Z,85.66
2017-11-09T04:54:40.850Z,85.71
2017-11-09T04:55:40.768Z,85.52
2017-11-09T04:56:40.681Z,85.99
2017-11-09T04:57:40.590Z,86.47
2017-11-09T04:58:40.505Z,86.18
2017-11-09T04:59:40.421Z,85.99
2017-11-09T05:00:40.338Z,86.18
2017-11-09T05:01:40.253Z,86.76
2017-11-09T05:02:40.162Z,85.90
2017-11-09T05:03:40.075Z,86.28
2017-11-09T05:04:39.989Z,85.94
2017-11-09T05:05:39.906Z,86.22
2017-11-09T05:06:39.815Z,86.04
2017-11-09T05:07:39.730Z,85.56
2017-11-09T05:08:39.648Z,85.85
2017-11-09T05:09:39.559Z,85.66
2017-11-09T05:10:39.473Z,86.57
2017-11-09T05:11:39.386Z,86.57
2017-11-09T05:12:39.296Z,86.57
2017-11-09T05:13:39.220Z,87.23
2017-11-09T05:14:39.133Z,86.94
2017-11-09T05:15:39.047Z,86.85
2017-11-09T05:16:38.957Z,86.66
2017-11-09T05:17:38.869Z,86.57
2017-11-09T05:18:38.784Z,86.47
2017-11-09T05:19:38.709Z,86.94
2017-11-09T05:20:38.606Z,86.76
2017-11-09T05:21:38.523Z,86.66
2017-11-09T05:22:38.439Z,86.76
2017-11-09T05:23:38.354Z,86.94
2017-11-09T05:24:38.274Z,87.71
2017-11-09T05:25:38.180Z,87.52
2017-11-09T05:26:38.092Z,87.61
2017-11-09T05:27:38.006Z,87.13
2017-11-09T05:28:37.920Z,86.94
2017-11-09T05:29:37.833Z,87.23
2017-11-09T05:30:37.750Z,86.94
2017-11-09T05:31:37.665Z,86.94
2017-11-09T05:32:37.576Z,87.13
2017-11-09T05:33:37.492Z,86.94
2017-11-09T05:34:37.397Z,87.23
2017-11-09T05:35:37.318Z,86.76
2017-11-09T05:36:37.226Z,87.23
2017-11-09T05:37:37.144Z,87.13
2017-11-09T05:38:37.065Z,86.94
2017-11-09T05:39:36.966Z,87.42
2017-11-09T05:40:36.880Z,87.32
2017-11-09T05:41:36.801Z,87.52
2017-11-09T05:42:36.717Z,87.61
2017-11-09T05:43:36.634Z,87.80
2017-11-09T05:44:36.532Z,87.80
2017-11-09T05:45:36.452Z,87.99
2017-11-09T05:46:36.366Z,88.37
2017-11-09T05:47:36.279Z,88.09
2017-11-09T05:48:36.194Z,87.71
2017-11-09T05:49:36.101Z,87.85
2017-11-09T05:50:36.016Z,87.90
2017-11-09T05:51:35.935Z,88.18
2017-11-09T05:52:35.837Z,87.42
2017-11-09T05:53:35.755Z,87.42
2017-11-09T05:54:35.676Z,88.18
2017-11-09T05:55:35.584Z,87.61
2017-11-09T05:56:35.490Z,87.42
2017-11-09T05:57:35.406Z,87.61
2017-11-09T05:58:35.319Z,87.32
2017-11-09T05:59:35.235Z,87.61
2017-11-09T06:00:35.148Z,87.32
2017-11-09T06:01:35.061Z,87.04
2017-11-09T06:02:34.973Z,87.61
2017-11-09T06:03:34.896Z,87.61
2017-11-09T06:04:34.848Z,87.61
2017-11-09T06:05:34.708Z,87.57
2017-11-09T06:06:34.628Z,89.18
2017-11-09T06:07:34.541Z,89.32
2017-11-09T06:08:34.455Z,88.18
2017-11-09T06:09:34.371Z,88.33
2017-11-09T06:10:34.286Z,88.80
2017-11-09T06:11:34.193Z,88.80
2017-11-09T06:12:34.107Z,88.28
2017-11-09T06:13:34.022Z,88.61
2017-11-09T06:14:33.944Z,89.23
2017-11-09T06:15:33.851Z,88.56
2017-11-09T06:16:33.759Z,88.85
2017-11-09T06:17:33.678Z,89.23
2017-11-09T06:18:33.585Z,87.85
2017-11-09T06:19:33.496Z,89.00
2017-11-09T06:20:33.411Z,89.23
2017-11-09T06:21:33.320Z,88.85
2017-11-09T06:22:33.241Z,88.28
2017-11-09T06:23:33.146Z,88.37
2017-11-09T06:24:33.069Z,88.28
2017-11-09T06:25:32.973Z,88.28
2017-11-09T06:26:32.888Z,89.04
2017-11-09T06:27:32.800Z,89.04
2017-11-09T06:28:32.718Z,88.37
2017-11-09T06:29:32.636Z,88.09
2017-11-09T06:30:32.539Z,87.99
2017-11-09T06:31:32.448Z,88.09
2017-11-09T06:32:32.391Z,88.09
2017-11-09T06:33:32.275Z,87.99
2017-11-09T06:34:32.199Z,88.94
2017-11-09T06:35:32.103Z,88.75
2017-11-09T06:36:32.020Z,89.23
2017-11-09T06:37:31.930Z,88.28
2017-11-09T06:38:31.843Z,88.75
2017-11-09T06:39:31.779Z,89.23
2017-11-09T06:40:31.673Z,89.23
2017-11-09T06:41:31.589Z,89.85
2017-11-09T06:42:31.503Z,90.47
2017-11-09T06:43:31.422Z,90.56
2017-11-09T06:44:31.347Z,90.66
2017-11-09T06:45:31.255Z,89.51
2017-11-09T06:46:31.157Z,89.32
2017-11-09T06:47:31.066Z,89.14
2017-11-09T06:48:30.979Z,89.23
2017-11-09T06:49:30.889Z,88.94
2017-11-09T06:50:30.809Z,88.85
2017-11-09T06:51:30.722Z,88.75
2017-11-09T06:52:30.630Z,88.94
2017-11-09T06:53:30.545Z,88.85
2017-11-09T06:54:30.464Z,88.66
2017-11-09T06:55:30.375Z,89.42
2017-11-09T06:56:30.293Z,89.61
2017-11-09T06:57:30.201Z,90.70
2017-11-09T06:58:30.111Z,90.80
2017-11-09T06:59:30.032Z,90.75
2017-11-09T07:00:29.947Z,90.08
2017-11-09T07:01:29.854Z,89.61
2017-11-09T07:02:29.787Z,90.56
2017-11-09T07:03:29.682Z,90.61
2017-11-09T07:04:29.591Z,90.89
2017-11-09T07:05:29.507Z,91.47
2017-11-09T07:06:29.426Z,91.47
2017-11-09T07:07:29.332Z,91.28
2017-11-09T07:08:29.266Z,91.18
2017-11-09T07:09:29.157Z,90.84
2017-11-09T07:10:29.074Z,90.56
2017-11-09T07:11:29.001Z,90.42
2017-11-09T07:12:28.898Z,90.23
2017-11-09T07:13:28.821Z,90.80
2017-11-09T07:14:28.725Z,91.37
2017-11-09T07:15:28.633Z,91.56
2017-11-09T07:16:28.555Z,91.28
2017-11-09T07:17:28.457Z,91.47
2017-11-09T07:18:28.391Z,90.99
2017-11-09T07:19:28.311Z,90.84
2017-11-09T07:20:28.226Z,90.47
2017-11-09T07:21:28.113Z,90.08
2017-11-09T07:22:28.027Z,90.08
2017-11-09T07:23:27.944Z,89.99
2017-11-09T07:24:27.859Z,89.70
2017-11-09T07:25:27.777Z,91.18
2017-11-09T07:26:27.680Z,92.51
2017-11-09T07:27:27.591Z,92.13
2017-11-09T07:28:27.501Z,92.13
2017-11-09T07:29:27.418Z,91.85
2017-11-09T07:30:27.332Z,91.66
2017-11-09T07:31:27.244Z,92.61
2017-11-09T07:32:27.155Z,92.13
2017-11-09T07:33:27.082Z,92.03
2017-11-09T07:34:27.007Z,91.47
2017-11-09T07:35:26.889Z,91.03
2017-11-09T07:36:26.808Z,90.47
2017-11-09T07:37:26.722Z,90.08
2017-11-09T07:38:26.635Z,89.99
2017-11-09T07:39:26.548Z,90.08
2017-11-09T07:40:26.457Z,89.99
2017-11-09T07:41:26.369Z,90.18
2017-11-09T07:42:26.310Z,90.33
2017-11-09T07:43:26.202Z,91.18
2017-11-09T07:44:26.112Z,92.03
2017-11-09T07:45:26.022Z,90.89
2017-11-09T07:46:25.936Z,91.56
2017-11-09T07:47:25.865Z,91.42
2017-11-09T07:48:25.765Z,90.08
2017-11-09T07:49:25.674Z,89.89
2017-11-09T07:50:25.590Z,89.42
2017-11-09T07:51:25.505Z,89.14
2017-11-09T07:52:25.429Z,89.04
2017-11-09T07:53:25.330Z,89.32
2017-11-09T07:54:25.240Z,88.75
2017-11-09T07:55:25.164Z,89.89
2017-11-09T07:56:25.066Z,90.56
2017-11-09T07:57:25.025Z,90.37
2017-11-09T07:58:24.897Z,90.84
2017-11-09T07:59:24.807Z,91.18
2017-11-09T08:00:24.720Z,91.08
2017-11-09T08:01:24.633Z,91.18
2017-11-09T08:02:24.546Z,91.08
2017-11-09T08:03:24.464Z,90.75
2017-11-09T08:04:24.382Z,90.18
2017-11-09T08:05:24.289Z,90.28
2017-11-09T08:06:24.203Z,90.61
2017-11-09T08:07:24.118Z,91.56
2017-11-09T08:08:24.024Z,90.47
2017-11-09T08:09:23.943Z,90.08
2017-11-09T08:10:23.850Z,90.08
2017-11-09T08:11:23.769Z,89.89
2017-11-09T08:12:23.678Z,89.70
2017-11-09T08:13:23.585Z,89.89
2017-11-09T08:14:23.508Z,89.70
2017-11-09T08:15:23.415Z,90.08
2017-11-09T08:16:23.330Z,90.66
2017-11-09T08:17:23.245Z,91.42
2017-11-09T08:18:23.157Z,91.56
2017-11-09T08:19:23.065Z,91.18
2017-11-09T08:20:22.983Z,91.28
2017-11-09T08:21:22.893Z,91.28
2017-11-09T08:22:22.800Z,91.28
2017-11-09T08:23:22.722Z,90.94
2017-11-09T08:24:22.629Z,90.61
2017-11-09T08:25:22.543Z,90.61
2017-11-09T08:26:22.455Z,91.08
2017-11-09T08:27:22.366Z,90.56
2017-11-09T08:28:22.282Z,90.80
2017-11-09T08:29:22.190Z,90.94
2017-11-09T08:30:22.102Z,91.03
2017-11-09T08:31:22.017Z,90.18
2017-11-09T08:32:21.935Z,90.75
2017-11-09T08:33:21.847Z,90.28
2017-11-09T08:34:21.760Z,90.66
2017-11-09T08:35:21.665Z,91.08
2017-11-09T08:36:21.596Z,90.75
2017-11-09T08:37:21.496Z,90.56
2017-11-09T08:38:21.414Z,90.08
2017-11-09T08:39:21.315Z,90.84
2017-11-09T08:40:21.236Z,90.66
2017-11-09T08:41:21.152Z,90.08
2017-11-09T08:42:21.062Z,90.37
2017-11-09T08:43:20.972Z,89.89
2017-11-09T08:44:20.889Z,90.66
2017-11-09T08:45:20.802Z,90.75
2017-11-09T08:46:20.716Z,90.66
2017-11-09T08:47:20.630Z,90.47
2017-11-09T08:48:20.540Z,90.94
2017-11-09T08:49:20.448Z,90.08
2017-11-09T08:50:20.367Z,90.18
2017-11-09T08:51:20.273Z,90.56
2017-11-09T08:52:20.199Z,90.56
2017-11-09T08:53:20.104Z,90.08
2017-11-09T08:54:20.015Z,89.70
2017-11-09T08:55:19.930Z,89.61
2017-11-09T08:56:19.842Z,89.80
2017-11-09T08:57:19.764Z,89.51
2017-11-09T08:58:19.682Z,89.42
2017-11-09T08:59:19.583Z,89.70
2017-11-09T09:00:19.503Z,90.47
2017-11-09T09:01:19.408Z,90.66
2017-11-09T09:02:19.324Z,89.61
2017-11-09T09:03:19.233Z,89.42
2017-11-09T09:04:19.152Z,89.80
2017-11-09T09:05:19.075Z,89.80
2017-11-09T09:06:18.989Z,90.66
2017-11-09T09:07:18.893Z,90.18
2017-11-09T09:08:18.800Z,89.70
2017-11-09T09:09:18.717Z,89.32
2017-11-09T09:10:18.742Z,89.14
2017-11-09T09:11:18.542Z,89.61
2017-11-09T09:12:18.457Z,89.89
2017-11-09T09:13:18.372Z,91.28
2017-11-09T09:14:18.290Z,91.51
2017-11-09T09:15:18.192Z,90.47
2017-11-09T09:16:18.102Z,90.08
2017-11-09T09:17:18.020Z,89.80
2017-11-09T09:18:17.941Z,89.80
2017-11-09T09:19:17.842Z,89.61
2017-11-09T09:20:17.770Z,89.80
2017-11-09T09:21:17.681Z,89.32
2017-11-09T09:22:17.593Z,88.89
2017-11-09T09:23:17.501Z,89.23
2017-11-09T09:24:17.412Z,89.04
2017-11-09T09:25:17.326Z,90.28
2017-11-09T09:26:17.240Z,90.08
2017-11-09T09:27:17.153Z,89.32
2017-11-09T09:28:17.077Z,89.70
2017-11-09T09:29:16.976Z,89.61
2017-11-09T09:30:16.891Z,89.23
2017-11-09T09:31:16.803Z,88.85
2017-11-09T09:32:16.716Z,89.51
2017-11-09T09:33:16.634Z,89.61
2017-11-09T09:34:16.547Z,89.80
2017-11-09T09:35:16.456Z,90.28
2017-11-09T09:36:16.368Z,89.51
2017-11-09T09:37:16.282Z,89.70
2017-11-09T09:38:16.215Z,90.28
2017-11-09T09:39:16.110Z,90.08
2017-11-09T09:40:16.019Z,90.56
2017-11-09T09:41:15.941Z,91.42
2017-11-09T09:42:15.844Z,90.56
2017-11-09T09:43:15.757Z,90.66
2017-11-09T09:44:15.680Z,90.56
2017-11-09T09:45:15.592Z,89.89
2017-11-09T09:46:15.515Z,90.84
2017-11-09T09:47:15.410Z,90.61
2017-11-09T09:48:15.319Z,91.32
2017-11-09T09:49:15.232Z,90.66
2017-11-09T09:50:15.154Z,90.08
2017-11-09T09:51:15.061Z,90.56
2017-11-09T09:52:14.972Z,90.47
2017-11-09T09:53:14.893Z,90.84
2017-11-09T09:54:14.803Z,91.32
2017-11-09T09:55:14.712Z,91.42
2017-11-09T09:56:14.624Z,92.22
2017-11-09T09:57:14.537Z,92.08
2017-11-09T09:58:14.454Z,91.22
2017-11-09T09:59:14.363Z,90.75
2017-11-09T10:00:14.273Z,89.51
2017-11-09T10:01:14.195Z,89.70
2017-11-09T10:02:14.107Z,89.61
2017-11-09T10:03:14.017Z,89.70
2017-11-09T10:04:13.929Z,89.14
2017-11-09T10:05:13.846Z,89.18
2017-11-09T10:06:13.757Z,89.51
2017-11-09T10:07:13.674Z,89.89
2017-11-09T10:08:13.583Z,90.75
2017-11-09T10:09:13.503Z,90.37
2017-11-09T10:10:13.419Z,90.94
2017-11-09T10:11:13.325Z,89.89
2017-11-09T10:12:13.240Z,89.23
2017-11-09T10:13:13.151Z,89.04
2017-11-09T10:14:13.064Z,89.14
2017-11-09T10:15:12.988Z,89.23
2017-11-09T10:16:12.888Z,89.14
2017-11-09T10:17:12.814Z,89.23
2017-11-09T10:18:12.718Z,89.32
2017-11-09T10:19:12.635Z,89.70
2017-11-09T10:20:12.558Z,89.14
2017-11-09T10:21:12.456Z,89.47
2017-11-09T10:22:12.370Z,88.75
2017-11-09T10:23:12.292Z,89.61
2017-11-09T10:24:12.197Z,90.28
2017-11-09T10:25:12.115Z,90.66
2017-11-09T10:26:12.021Z,90.28
2017-11-09T10:27:11.937Z,90.37
2017-11-09T10:28:11.855Z,89.70
2017-11-09T10:29:11.761Z,88.85
2017-11-09T10:30:11.680Z,89.61
2017-11-09T10:31:11.586Z,89.23
2017-11-09T10:32:11.497Z,89.04
2017-11-09T10:33:11.411Z,89.80
2017-11-09T10:34:11.325Z,89.61
2017-11-09T10:35:11.238Z,89.27
2017-11-09T10:36:11.151Z,89.27
2017-11-09T10:37:11.100Z,88.99
2017-11-09T10:38:10.978Z,88.60
2017-11-09T10:39:10.888Z,88.66
2017-11-09T10:40:10.816Z,88.85
2017-11-09T10:41:10.720Z,89.04
2017-11-09T10:42:10.638Z,89.70
2017-11-09T10:43:10.548Z,90.08
2017-11-09T10:44:10.465Z,89.70
2017-11-09T10:45:10.375Z,89.37
2017-11-09T10:46:10.292Z,89.80
2017-11-09T10:47:10.198Z,89.89
2017-11-09T10:48:10.128Z,90.66
2017-11-09T10:49:10.026Z,89.89
2017-11-09T10:50:09.944Z,89.80
2017-11-09T10:51:09.849Z,89.08
2017-11-09T10:52:09.766Z,89.37
2017-11-09T10:53:09.680Z,89.42
2017-11-09T10:54:09.591Z,89.61
2017-11-09T10:55:09.516Z,89.27
2017-11-09T10:56:09.429Z,89.27
2017-11-09T10:57:09.339Z,89.04
2017-11-09T10:58:09.252Z,89.14
2017-11-09T10:59:09.156Z,88.94
2017-11-09T11:00:09.074Z,88.70
2017-11-09T11:01:08.984Z,89.18
2017-11-09T11:02:08.902Z,88.89
2017-11-09T11:03:08.811Z,88.60
2017-11-09T11:04:08.721Z,88.42
2017-11-09T11:05:08.639Z,88.42
2017-11-09T11:06:08.554Z,88.32
2017-11-09T11:07:08.486Z,88.51
2017-11-09T11:08:08.382Z,88.23
2017-11-09T11:09:08.313Z,88.75
2017-11-09T11:10:08.212Z,88.60
2017-11-09T11:11:08.122Z,88.51
2017-11-09T11:12:08.039Z,88.99
2017-11-09T11:13:07.950Z,88.79
2017-11-09T11:14:07.866Z,88.60
2017-11-09T11:15:07.782Z,88.28
2017-11-09T11:16:07.692Z,88.04
2017-11-09T11:17:07.606Z,88.28
2017-11-09T11:18:07.520Z,88.94
2017-11-09T11:19:07.440Z,89.08
2017-11-09T11:20:07.360Z,88.42
2017-11-09T11:21:07.260Z,88.99
2017-11-09T11:22:07.175Z,89.27
2017-11-09T11:23:07.088Z,89.04
2017-11-09T11:24:07.012Z,89.61
2017-11-09T11:25:06.919Z,89.89
2017-11-09T11:26:06.823Z,89.27
2017-11-09T11:27:06.745Z,89.14
2017-11-09T11:28:06.663Z,89.14
2017-11-09T11:29:06.573Z,88.99
2017-11-09T11:30:06.491Z,89.14
2017-11-09T11:31:06.400Z,88.89
2017-11-09T11:32:06.310Z,88.89
2017-11-09T11:33:06.220Z,88.79
2017-11-09T11:34:06.133Z,88.23
2017-11-09T11:35:06.052Z,87.85
2017-11-09T11:36:05.973Z,87.65
2017-11-09T11:37:05.881Z,88.42
2017-11-09T11:38:05.799Z,87.75
2017-11-09T11:39:05.719Z,87.75
2017-11-09T11:40:05.624Z,88.23
2017-11-09T11:41:05.533Z,88.04
2017-11-09T11:42:05.448Z,88.13
2017-11-09T11:43:05.356Z,87.65
2017-11-09T11:44:05.272Z,88.32
2017-11-09T11:45:05.186Z,88.32
2017-11-09T11:46:05.101Z,88.23
2017-11-09T11:47:05.014Z,88.99
2017-11-09T11:48:04.932Z,88.23
2017-11-09T11:49:04.847Z,88.75
2017-11-09T11:50:04.756Z,88.94
2017-11-09T11:51:04.671Z,89.51
2017-11-09T11:52:04.588Z,89.89
2017-11-09T11:53:04.514Z,90.56
2017-11-09T11:54:04.408Z,89.89
2017-11-09T11:55:04.318Z,89.32
2017-11-09T11:56:04.229Z,89.14
2017-11-09T11:57:04.149Z,89.08
2017-11-09T11:58:04.057Z,88.89
2017-11-09T11:59:04.002Z,89.18
2017-11-09T12:00:03.882Z,88.89
2017-11-09T12:01:03.799Z,88.89
2017-11-09T12:02:03.721Z,88.66
2017-11-09T12:03:03.627Z,89.51
2017-11-09T12:04:03.539Z,89.61
2017-11-09T12:05:03.470Z,88.94
2017-11-09T12:06:03.376Z,89.70
2017-11-09T12:07:03.282Z,91.61
2017-11-09T12:08:03.193Z,91.61
2017-11-09T12:09:03.103Z,91.42
2017-11-09T12:10:03.014Z,91.32
2017-11-09T12:11:02.928Z,91.51
2017-11-09T12:12:02.867Z,90.66
2017-11-09T12:13:02.770Z,90.47
2017-11-09T12:14:02.669Z,89.89
2017-11-09T12:15:02.578Z,89.51
2017-11-09T12:16:02.508Z,89.89
2017-11-09T12:17:02.405Z,89.14
2017-11-09T12:18:02.320Z,89.42
2017-11-09T12:19:02.235Z,89.27
2017-11-09T12:20:02.151Z,89.04
2017-11-09T12:21:02.061Z,89.04
2017-11-09T12:22:01.977Z,89.14
2017-11-09T12:23:01.886Z,89.27
2017-11-09T12:24:01.797Z,89.56
2017-11-09T12:25:01.713Z,88.89
2017-11-09T12:26:01.625Z,88.99
2017-11-09T12:27:01.539Z,88.70
2017-11-09T12:28:01.461Z,88.42
2017-11-09T12:29:01.366Z,88.89
2017-11-09T12:30:01.284Z,88.99
2017-11-09T12:31:01.193Z,88.85
2017-11-09T12:32:01.106Z,89.47
2017-11-09T12:33:01.098Z,89.27
2017-11-09T12:34:00.936Z,88.89
2017-11-09T12:35:00.854Z,89.56
2017-11-09T12:36:00.764Z,89.61
2017-11-09T12:37:00.675Z,89.08
2017-11-09T12:38:00.589Z,88.94
2017-11-09T12:39:00.502Z,88.99
2017-11-09T12:40:00.412Z,89.42
2017-11-09T12:41:00.333Z,89.23
2017-11-09T12:42:00.238Z,88.94
2017-11-09T12:43:00.157Z,89.42
2017-11-09T12:44:00.073Z,89.23
2017-11-09T12:44:59.985Z,88.99
2017-11-09T12:45:59.899Z,88.75
2017-11-09T12:46:59.829Z,89.51
2017-11-09T12:47:59.733Z,89.23
2017-11-09T12:48:59.632Z,89.89
2017-11-09T12:49:59.560Z,89.51
2017-11-09T12:50:59.457Z,89.04